createdAt,value
2023-05-23T00:01:55.062Z,4.90
2023-05-23T00:04:27.314Z,4.95
2023-05-23T00:06:57.363Z,5.05
2023-05-23T00:09:25.996Z,5.13
2023-05-23T00:11:54.523Z,5.05
2023-05-23T00:14:23.753Z,4.90
2023-05-23T00:16:52.311Z,4.88
2023-05-23T00:19:20.811Z,5.00
2023-05-23T00:21:50.100Z,4.97
2023-05-23T00:24:20.565Z,4.65
2023-05-23T00:26:49.059Z,4.53
2023-05-23T00:29:17.855Z,4.95
2023-05-23T00:31:47.078Z,5.03
2023-05-23T00:34:18.120Z,4.57
2023-05-23T00:36:48.065Z,5.40
2023-05-23T00:39:20.326Z,5.13
2023-05-23T00:41:52.694Z,5.55
2023-05-23T00:44:22.246Z,5.10
2023-05-23T00:46:53.114Z,4.88
2023-05-23T00:49:21.929Z,5.03
2023-05-23T00:51:50.700Z,4.97
2023-05-23T00:54:19.728Z,5.10
2023-05-23T00:56:48.992Z,5.13
2023-05-23T00:59:22.329Z,5.18
2023-05-23T01:01:51.083Z,5.00
2023-05-23T01:04:20.138Z,4.85
2023-05-23T01:06:49.567Z,4.57
2023-05-23T01:09:18.032Z,4.85
2023-05-23T01:11:52.220Z,4.80
2023-05-23T01:14:25.247Z,4.72
2023-05-23T01:16:57.316Z,4.80
2023-05-23T01:19:50.426Z,5.03
2023-05-23T01:22:24.212Z,5.00
2023-05-23T01:24:56.705Z,4.63
2023-05-23T01:27:34.607Z,4.70
2023-05-23T01:30:04.612Z,5.07
2023-05-23T01:32:33.141Z,5.30
2023-05-23T01:35:01.780Z,4.88
2023-05-23T01:37:30.574Z,4.90
2023-05-23T01:39:59.113Z,4.65
2023-05-23T01:42:28.196Z,4.82
2023-05-23T01:44:59.556Z,4.47
2023-05-23T01:47:29.680Z,4.60
2023-05-23T01:49:58.300Z,4.75
2023-05-23T01:52:26.805Z,4.72
2023-05-23T01:54:55.612Z,4.72
2023-05-23T01:57:24.527Z,4.70
2023-05-23T01:59:52.926Z,4.90
2023-05-23T02:02:21.934Z,5.35
2023-05-23T02:04:54.119Z,4.80
2023-05-23T02:07:23.591Z,4.97
2023-05-23T02:09:52.128Z,4.80
2023-05-23T02:12:20.648Z,4.30
2023-05-23T02:14:49.390Z,4.97
2023-05-23T02:17:18.349Z,4.88
2023-05-23T02:19:47.019Z,4.72
2023-05-23T02:22:17.103Z,4.20
2023-05-23T02:24:45.687Z,5.13
2023-05-23T02:27:14.667Z,5.20
2023-05-23T02:29:43.248Z,4.43
2023-05-23T02:32:11.881Z,4.63
2023-05-23T02:34:40.484Z,4.45
2023-05-23T02:37:09.043Z,5.15
2023-05-23T02:39:38.913Z,5.15
2023-05-23T02:42:07.895Z,4.72
2023-05-23T02:44:36.416Z,4.82
2023-05-23T02:47:05.786Z,4.90
2023-05-23T02:49:34.126Z,5.43
2023-05-23T02:52:02.683Z,4.68
2023-05-23T02:54:31.170Z,4.50
2023-05-23T02:57:01.708Z,4.55
2023-05-23T02:59:30.126Z,4.82
2023-05-23T03:01:58.546Z,5.13
2023-05-23T03:04:27.952Z,4.65
2023-05-23T03:06:56.691Z,4.57
2023-05-23T03:09:25.359Z,4.72
2023-05-23T03:11:53.901Z,4.80
2023-05-23T03:14:23.764Z,5.28
2023-05-23T03:16:52.300Z,4.88
2023-05-23T03:19:20.710Z,4.47
2023-05-23T03:21:51.180Z,5.20
2023-05-23T03:24:19.701Z,5.47
2023-05-23T03:26:48.054Z,5.05
2023-05-23T03:29:16.761Z,4.68
2023-05-23T03:31:46.554Z,5.20
2023-05-23T03:34:15.234Z,5.03
2023-05-23T03:36:43.836Z,5.18
2023-05-23T03:39:12.459Z,5.05
2023-05-23T03:41:41.023Z,4.60
2023-05-23T03:44:09.536Z,4.68
2023-05-23T03:46:39.747Z,4.70
2023-05-23T03:49:10.093Z,4.95
2023-05-23T03:51:38.625Z,4.43
2023-05-23T03:54:07.396Z,5.07
2023-05-23T03:56:35.838Z,5.10
2023-05-23T03:59:04.381Z,5.30
2023-05-23T04:01:33.005Z,4.70
2023-05-23T04:04:01.799Z,5.40
2023-05-23T04:06:31.673Z,5.03
2023-05-23T04:09:00.094Z,4.90
2023-05-23T04:11:28.621Z,4.53
2023-05-23T04:13:57.341Z,4.85
2023-05-23T04:16:26.277Z,4.97
2023-05-23T04:18:55.511Z,5.38
2023-05-23T04:21:24.209Z,5.20
2023-05-23T04:23:54.406Z,4.75
2023-05-23T04:26:22.837Z,4.90
2023-05-23T04:28:55.109Z,5.18
2023-05-23T04:31:23.823Z,5.10
2023-05-23T04:33:52.574Z,5.20
2023-05-23T04:36:23.754Z,5.10
2023-05-23T04:38:53.964Z,4.75
2023-05-23T04:41:23.907Z,5.32
2023-05-23T04:43:54.628Z,4.97
2023-05-23T04:46:26.738Z,5.38
2023-05-23T04:48:56.517Z,5.00
2023-05-23T04:51:25.394Z,5.10
2023-05-23T04:53:55.451Z,5.10
2023-05-23T04:56:28.956Z,5.78
2023-05-23T04:58:57.463Z,5.22
2023-05-23T05:01:25.958Z,4.65
2023-05-23T05:03:54.815Z,5.13
2023-05-23T05:06:23.983Z,4.50
2023-05-23T05:08:52.746Z,4.95
2023-05-23T05:11:23.242Z,4.50
2023-05-23T05:13:51.911Z,4.85
2023-05-23T05:16:20.318Z,4.70
2023-05-23T05:18:48.797Z,4.90
2023-05-23T05:21:17.425Z,4.88
2023-05-23T05:23:45.846Z,4.70
2023-05-23T05:26:14.380Z,4.57
2023-05-23T05:28:44.160Z,4.63
2023-05-23T05:31:16.244Z,5.43
2023-05-23T05:33:46.066Z,4.68
2023-05-23T05:36:14.881Z,4.45
2023-05-23T05:38:43.349Z,4.93
2023-05-23T05:41:11.880Z,4.38
2023-05-23T05:43:40.305Z,4.68
2023-05-23T05:46:10.119Z,4.28
2023-05-23T05:48:38.644Z,4.20
2023-05-23T05:51:07.210Z,4.18
2023-05-23T05:53:35.709Z,4.93
2023-05-23T05:56:04.203Z,4.32
2023-05-23T05:58:32.675Z,4.88
2023-05-23T06:01:01.060Z,4.15
2023-05-23T06:03:30.957Z,4.63
2023-05-23T06:05:59.614Z,4.28
2023-05-23T06:08:28.208Z,4.72
2023-05-23T06:10:57.516Z,4.57
2023-05-23T06:13:26.174Z,4.82
2023-05-23T06:15:54.674Z,4.93
2023-05-23T06:18:23.085Z,5.03
2023-05-23T06:20:52.957Z,4.43
2023-05-23T06:23:21.382Z,4.45
2023-05-23T06:25:49.844Z,4.90
2023-05-23T06:28:18.267Z,5.03
2023-05-23T06:30:46.893Z,4.53
2023-05-23T06:33:15.324Z,4.60
2023-05-23T06:35:44.140Z,4.72
2023-05-23T06:38:15.761Z,5.13
2023-05-23T06:40:45.595Z,4.82
2023-05-23T06:43:13.982Z,4.60
2023-05-23T06:45:42.428Z,4.80
2023-05-23T06:48:11.937Z,4.78
2023-05-23T06:50:41.136Z,4.70
2023-05-23T06:53:09.818Z,4.60
2023-05-23T06:55:40.036Z,5.05
2023-05-23T06:58:08.791Z,5.18
2023-05-23T07:00:38.344Z,4.80
2023-05-23T07:03:08.240Z,4.88
2023-05-23T07:05:40.020Z,5.03
2023-05-23T07:08:11.336Z,4.28
2023-05-23T07:10:42.432Z,4.82
2023-05-23T07:13:11.171Z,5.00
2023-05-23T07:15:39.821Z,5.05
2023-05-23T07:18:08.496Z,5.10
2023-05-23T07:20:37.094Z,5.47
2023-05-23T07:23:05.857Z,4.85
2023-05-23T07:25:34.409Z,5.28
2023-05-23T07:28:04.220Z,5.20
2023-05-23T07:30:33.475Z,5.40
2023-05-23T07:33:02.250Z,5.35
2023-05-23T07:35:30.733Z,5.40
2023-05-23T07:37:59.207Z,5.05
2023-05-23T07:40:27.892Z,5.32
2023-05-23T07:42:56.621Z,4.95
2023-05-23T07:45:26.649Z,5.22
2023-05-23T07:47:58.242Z,5.80
2023-05-23T07:50:27.978Z,4.90
2023-05-23T07:52:56.736Z,5.20
2023-05-23T07:55:25.138Z,5.55
2023-05-23T07:57:55.281Z,4.88
2023-05-23T08:00:25.237Z,5.25
2023-05-23T08:02:54.314Z,5.35
2023-05-23T08:05:24.230Z,5.43
2023-05-23T08:07:54.527Z,5.15
2023-05-23T08:10:23.289Z,5.70
2023-05-23T08:12:52.103Z,5.50
2023-05-23T08:15:21.436Z,6.40
2023-05-23T08:17:51.915Z,5.00
2023-05-23T08:20:20.807Z,5.88
2023-05-23T08:22:49.196Z,6.35
2023-05-23T08:25:17.832Z,6.57
2023-05-23T08:27:46.262Z,6.20
2023-05-23T08:30:16.116Z,6.07
2023-05-23T08:32:44.741Z,8.40
2023-05-23T08:35:14.538Z,7.32
2023-05-23T08:37:43.311Z,7.93
2023-05-23T08:40:12.811Z,10.02
2023-05-23T08:42:41.403Z,8.23
2023-05-23T08:45:11.483Z,8.20
2023-05-23T08:47:40.221Z,8.93
2023-05-23T08:50:10.497Z,8.18
2023-05-23T08:52:44.469Z,7.35
2023-05-23T08:55:13.111Z,7.70
2023-05-23T08:57:43.922Z,6.47
2023-05-23T09:00:15.247Z,8.98
2023-05-23T09:02:45.030Z,9.88
2023-05-23T09:05:13.814Z,12.70
2023-05-23T09:07:44.673Z,7.68
2023-05-23T09:10:13.124Z,7.45
2023-05-23T09:12:41.740Z,6.25
2023-05-23T09:15:12.417Z,6.35
2023-05-23T09:17:41.033Z,6.05
2023-05-23T09:20:14.381Z,5.90
2023-05-23T09:22:47.345Z,7.22
2023-05-23T09:25:16.094Z,7.25
2023-05-23T09:27:47.784Z,9.82
2023-05-23T09:30:17.614Z,7.63
2023-05-23T09:32:57.818Z,8.52
2023-05-23T09:35:26.510Z,7.57
2023-05-23T09:37:59.127Z,8.10
2023-05-23T09:40:32.376Z,5.53
2023-05-23T09:43:04.941Z,6.85
2023-05-23T09:45:34.590Z,7.47
2023-05-23T09:48:03.053Z,6.20
2023-05-23T09:50:34.217Z,5.50
2023-05-23T09:53:04.250Z,5.35
2023-05-23T09:55:32.651Z,5.47
2023-05-23T09:58:01.689Z,5.43
2023-05-23T10:00:30.128Z,5.78
2023-05-23T10:03:08.458Z,4.90
2023-05-23T10:05:39.383Z,5.03
2023-05-23T10:08:15.398Z,5.70
2023-05-23T10:11:37.554Z,4.97
2023-05-23T10:14:08.549Z,6.78
2023-05-23T10:16:44.012Z,6.10
2023-05-23T10:19:19.008Z,6.00
2023-05-23T10:21:57.614Z,5.13
2023-05-23T10:24:27.945Z,5.10
2023-05-23T10:26:56.643Z,5.25
2023-05-23T10:29:25.449Z,5.22
2023-05-23T10:31:54.391Z,4.63
2023-05-23T10:34:28.513Z,5.05
2023-05-23T10:37:02.680Z,5.55
2023-05-23T10:39:44.523Z,5.07
2023-05-23T10:42:17.128Z,4.80
2023-05-23T10:44:45.956Z,5.22
2023-05-23T10:47:14.502Z,4.82
2023-05-23T10:49:44.558Z,5.57
2023-05-23T10:52:14.406Z,4.70
2023-05-23T10:54:49.810Z,4.93
2023-05-23T10:57:20.055Z,5.30
2023-05-23T10:59:48.452Z,5.13
2023-05-23T11:02:19.646Z,4.97
2023-05-23T11:04:48.711Z,5.05
2023-05-23T11:07:41.500Z,4.68
2023-05-23T11:10:15.149Z,4.63
2023-05-23T11:12:44.815Z,4.68
2023-05-23T11:15:30.900Z,5.07
2023-05-23T11:18:02.334Z,5.18
2023-05-23T11:20:30.793Z,4.70
2023-05-23T11:23:02.964Z,5.35
2023-05-23T11:25:45.719Z,4.80
2023-05-23T11:28:14.828Z,4.82
2023-05-23T11:30:43.385Z,4.63
2023-05-23T11:33:13.843Z,4.90
2023-05-23T11:35:42.833Z,4.90
2023-05-23T11:38:11.631Z,5.75
2023-05-23T11:40:41.423Z,6.00
2023-05-23T11:43:13.041Z,6.05
2023-05-23T11:45:41.883Z,6.68
2023-05-23T11:48:11.828Z,5.85
2023-05-23T11:50:48.649Z,5.38
2023-05-23T11:53:19.179Z,6.60
2023-05-23T11:55:53.292Z,6.20
2023-05-23T11:58:23.957Z,5.60
2023-05-23T12:00:55.034Z,5.57
2023-05-23T12:03:23.959Z,5.97
2023-05-23T12:05:52.670Z,6.05
2023-05-23T12:08:21.183Z,6.30
2023-05-23T12:10:54.077Z,6.70
2023-05-23T12:13:25.345Z,6.45
2023-05-23T12:15:56.415Z,6.43
2023-05-23T12:18:25.087Z,5.97
2023-05-23T12:20:53.521Z,6.03
2023-05-23T12:23:23.312Z,6.10
2023-05-23T12:25:52.983Z,6.53
2023-05-23T12:28:21.553Z,6.50
2023-05-23T12:30:51.420Z,6.40
2023-05-23T12:33:21.250Z,7.22
2023-05-23T12:35:49.770Z,6.97
2023-05-23T12:38:18.500Z,6.05
2023-05-23T12:40:46.952Z,6.00
2023-05-23T12:43:17.796Z,5.65
2023-05-23T12:45:46.375Z,5.53
2023-05-23T12:48:16.941Z,5.95
2023-05-23T12:50:45.567Z,5.97
2023-05-23T12:53:14.000Z,5.70
2023-05-23T12:55:42.713Z,6.00
2023-05-23T12:58:11.538Z,5.60
2023-05-23T13:00:40.101Z,5.90
2023-05-23T13:03:08.645Z,5.00
2023-05-23T13:05:38.518Z,5.35
2023-05-23T13:08:07.257Z,6.10
2023-05-23T13:10:35.924Z,5.90
2023-05-23T13:13:04.754Z,5.35
2023-05-23T13:15:33.196Z,5.70
2023-05-23T13:18:04.325Z,5.38
2023-05-23T13:20:32.815Z,5.57
2023-05-23T13:23:02.707Z,5.22
2023-05-23T13:25:31.386Z,5.20
2023-05-23T13:28:01.411Z,5.70
2023-05-23T13:30:29.910Z,5.43
2023-05-23T13:32:58.594Z,5.00
2023-05-23T13:35:27.051Z,4.90
2023-05-23T13:37:55.510Z,4.47
2023-05-23T13:40:25.536Z,4.80
2023-05-23T13:42:54.046Z,4.68
2023-05-23T13:45:23.472Z,4.70
2023-05-23T13:47:51.935Z,4.93
2023-05-23T13:50:20.785Z,4.60
2023-05-23T13:52:49.599Z,4.43
2023-05-23T13:55:18.837Z,5.03
2023-05-23T13:57:48.727Z,4.53
2023-05-23T14:00:18.081Z,4.47
2023-05-23T14:02:46.699Z,4.45
2023-05-23T14:05:15.651Z,4.50
2023-05-23T14:07:47.319Z,4.07
2023-05-23T14:10:17.450Z,4.43
2023-05-23T14:12:46.123Z,4.50
2023-05-23T14:15:16.043Z,4.30
2023-05-23T14:17:44.615Z,5.10
2023-05-23T14:20:14.097Z,4.10
2023-05-23T14:22:42.519Z,4.30
2023-05-23T14:25:11.845Z,4.35
2023-05-23T14:27:40.598Z,4.22
2023-05-23T14:30:11.634Z,3.85
2023-05-23T14:32:41.696Z,4.20
2023-05-23T14:35:12.156Z,4.45
2023-05-23T14:37:40.938Z,4.28
2023-05-23T14:40:11.328Z,4.00
2023-05-23T14:42:39.893Z,4.38
2023-05-23T14:45:09.220Z,4.47
2023-05-23T14:47:37.734Z,4.32
2023-05-23T14:50:09.526Z,4.05
2023-05-23T14:52:37.953Z,4.32
2023-05-23T14:55:07.888Z,4.28
2023-05-23T14:57:36.347Z,4.45
2023-05-23T15:00:05.963Z,3.92
2023-05-23T15:02:34.774Z,3.90
2023-05-23T15:05:03.370Z,3.70
2023-05-23T15:07:33.557Z,3.80
2023-05-23T15:10:02.475Z,3.90
2023-05-23T15:12:30.999Z,4.10
2023-05-23T15:15:03.836Z,3.72
2023-05-23T15:17:33.147Z,3.72
2023-05-23T15:20:02.760Z,3.95
2023-05-23T15:22:39.283Z,3.60
2023-05-23T15:25:09.944Z,4.30
2023-05-23T15:27:38.448Z,3.65
2023-05-23T15:30:09.637Z,3.92
2023-05-23T15:32:38.253Z,3.50
2023-05-23T15:35:08.176Z,4.30
2023-05-23T15:37:38.502Z,4.35
2023-05-23T15:40:08.346Z,4.15
2023-05-23T15:42:36.938Z,3.72
2023-05-23T15:45:06.053Z,3.95
2023-05-23T15:47:34.937Z,3.80
2023-05-23T15:50:03.437Z,3.97
2023-05-23T15:52:31.860Z,4.10
2023-05-23T15:55:05.540Z,3.88
2023-05-23T15:57:34.202Z,3.63
2023-05-23T16:00:02.624Z,3.75
2023-05-23T16:02:31.072Z,3.90
2023-05-23T16:04:59.815Z,3.88
2023-05-23T16:07:28.258Z,3.67
2023-05-23T16:09:57.068Z,3.90
2023-05-23T16:12:26.928Z,3.95
2023-05-23T16:14:55.538Z,3.55
2023-05-23T16:17:23.989Z,3.80
2023-05-23T16:19:52.391Z,4.18
2023-05-23T16:22:21.298Z,3.90
2023-05-23T16:24:49.740Z,3.92
2023-05-23T16:27:18.270Z,3.65
2023-05-23T16:29:48.240Z,4.07
2023-05-23T16:32:17.164Z,3.97
2023-05-23T16:34:50.832Z,4.07
2023-05-23T16:37:21.856Z,3.95
2023-05-23T16:39:50.474Z,4.45
2023-05-23T16:42:18.940Z,3.70
2023-05-23T16:44:48.896Z,3.75
2023-05-23T16:47:17.845Z,3.75
2023-05-23T16:49:46.332Z,4.30
2023-05-23T16:52:14.906Z,4.32
2023-05-23T16:54:43.371Z,4.13
2023-05-23T16:57:12.258Z,4.20
2023-05-23T16:59:41.663Z,4.32
2023-05-23T17:02:12.554Z,4.43
2023-05-23T17:04:41.675Z,4.13
2023-05-23T17:07:10.175Z,4.47
2023-05-23T17:09:39.077Z,4.65
2023-05-23T17:12:08.305Z,4.55
2023-05-23T17:14:36.920Z,4.80
2023-05-23T17:17:05.597Z,5.28
2023-05-23T17:19:36.246Z,4.97
2023-05-23T17:22:07.418Z,5.30
2023-05-23T17:24:36.647Z,5.20
2023-05-23T17:27:05.550Z,4.90
2023-05-23T17:29:34.008Z,5.43
2023-05-23T17:32:02.548Z,5.50
2023-05-23T17:34:31.321Z,4.93
2023-05-23T17:37:01.073Z,4.85
2023-05-23T17:39:29.572Z,5.05
2023-05-23T17:41:58.209Z,4.30
2023-05-23T17:44:26.627Z,5.07
2023-05-23T17:46:55.148Z,5.18
2023-05-23T17:49:23.835Z,5.07
2023-05-23T17:51:52.278Z,5.25
2023-05-23T17:54:22.279Z,5.55
2023-05-23T17:56:50.751Z,4.72
2023-05-23T17:59:19.298Z,4.38
2023-05-23T18:01:47.796Z,4.43
2023-05-23T18:04:16.283Z,4.18
2023-05-23T18:06:44.757Z,3.60
2023-05-23T18:09:13.622Z,3.70
2023-05-23T18:11:43.853Z,3.53
2023-05-23T18:14:12.325Z,3.80
2023-05-23T18:16:40.893Z,4.35
2023-05-23T18:19:09.449Z,3.13
2023-05-23T18:21:38.185Z,4.38
2023-05-23T18:24:07.525Z,3.28
2023-05-23T18:26:40.380Z,3.60
2023-05-23T18:29:10.342Z,3.20
2023-05-23T18:31:38.860Z,3.75
2023-05-23T18:34:07.998Z,3.50
2023-05-23T18:36:36.628Z,3.17
2023-05-23T18:39:05.548Z,3.50
2023-05-23T18:41:36.863Z,3.17
2023-05-23T18:44:05.960Z,3.65
2023-05-23T18:46:36.466Z,3.42
2023-05-23T18:49:05.126Z,3.10
2023-05-23T18:51:33.950Z,3.75
2023-05-23T18:54:02.436Z,3.85
2023-05-23T18:56:30.932Z,3.53
2023-05-23T18:58:59.436Z,3.35
2023-05-23T19:01:27.893Z,3.63
2023-05-23T19:03:58.535Z,3.42
2023-05-23T19:06:27.756Z,3.13
2023-05-23T19:08:56.223Z,3.60
2023-05-23T19:11:24.787Z,3.35
2023-05-23T19:13:53.510Z,3.10
2023-05-23T19:16:22.005Z,3.10
2023-05-23T19:18:50.543Z,2.83
2023-05-23T19:21:20.362Z,3.03
2023-05-23T19:23:48.860Z,3.08
2023-05-23T19:26:18.527Z,2.97
2023-05-23T19:28:48.942Z,3.00
2023-05-23T19:31:17.653Z,2.70
2023-05-23T19:33:46.517Z,2.90
2023-05-23T19:36:15.116Z,2.80
2023-05-23T19:38:45.016Z,2.92
2023-05-23T19:41:13.624Z,2.80
2023-05-23T19:43:42.285Z,3.40
2023-05-23T19:46:10.915Z,2.80
2023-05-23T19:48:39.666Z,3.08
2023-05-23T19:51:08.373Z,2.90
2023-05-23T19:53:37.110Z,2.75
2023-05-23T19:56:07.379Z,3.05
2023-05-23T19:58:36.315Z,2.72
2023-05-23T20:01:04.898Z,3.40
2023-05-23T20:03:33.816Z,3.05
2023-05-23T20:06:02.304Z,2.88
2023-05-23T20:08:30.827Z,2.97
2023-05-23T20:11:00.530Z,2.75
2023-05-23T20:13:31.164Z,3.33
2023-05-23T20:15:59.737Z,2.70
2023-05-23T20:18:28.314Z,2.80
2023-05-23T20:20:56.987Z,3.38
2023-05-23T20:23:25.598Z,3.10
2023-05-23T20:25:54.373Z,3.30
2023-05-23T20:28:22.811Z,2.90
2023-05-23T20:30:52.835Z,2.80
2023-05-23T20:33:21.983Z,3.20
2023-05-23T20:35:50.622Z,3.40
2023-05-23T20:38:20.737Z,2.95
2023-05-23T20:40:51.572Z,3.53
2023-05-23T20:43:22.452Z,3.10
2023-05-23T20:45:52.484Z,3.33
2023-05-23T20:48:20.937Z,3.22
2023-05-23T20:50:49.503Z,2.65
2023-05-23T20:53:17.927Z,2.83
2023-05-23T20:55:46.373Z,2.70
2023-05-23T20:58:15.075Z,3.10
2023-05-23T21:00:43.849Z,2.50
2023-05-23T21:03:14.163Z,2.88
2023-05-23T21:05:42.853Z,2.75
2023-05-23T21:08:11.512Z,2.53
2023-05-23T21:10:40.181Z,2.90
2023-05-23T21:13:10.064Z,2.70
2023-05-23T21:15:39.250Z,2.60
2023-05-23T21:18:07.878Z,3.28
2023-05-23T21:20:38.210Z,2.80
2023-05-23T21:23:06.573Z,2.83
2023-05-23T21:25:35.529Z,2.58
2023-05-23T21:28:04.149Z,2.78
2023-05-23T21:30:32.698Z,2.67
2023-05-23T21:33:01.549Z,3.03
2023-05-23T21:35:30.023Z,2.95
2023-05-23T21:37:59.833Z,2.75
2023-05-23T21:40:28.376Z,2.63
2023-05-23T21:42:56.850Z,2.90
2023-05-23T21:45:25.840Z,2.78
2023-05-23T21:47:54.813Z,2.80
2023-05-23T21:50:23.727Z,3.03
2023-05-23T21:52:52.375Z,2.85
2023-05-23T21:55:22.670Z,2.33
2023-05-23T21:57:51.085Z,2.70
2023-05-23T22:00:20.623Z,3.13
2023-05-23T22:02:49.111Z,2.83
2023-05-23T22:05:17.878Z,2.60
2023-05-23T22:07:46.498Z,2.83
2023-05-23T22:10:15.013Z,2.75
2023-05-23T22:12:44.812Z,2.63
2023-05-23T22:15:13.567Z,2.70
2023-05-23T22:17:43.761Z,2.65
2023-05-23T22:20:14.664Z,2.90
2023-05-23T22:22:43.901Z,2.90
2023-05-23T22:25:12.383Z,3.00
2023-05-23T22:27:41.087Z,3.10
2023-05-23T22:30:12.489Z,2.58
2023-05-23T22:32:40.945Z,2.78
2023-05-23T22:35:10.949Z,3.10
2023-05-23T22:37:39.471Z,2.90
2023-05-23T22:40:10.402Z,2.80
2023-05-23T22:42:40.185Z,3.08
2023-05-23T22:45:11.515Z,2.50
2023-05-23T22:47:41.761Z,2.80
2023-05-23T22:50:11.501Z,2.78
2023-05-23T22:52:40.428Z,2.80
2023-05-23T22:55:10.293Z,2.80
2023-05-23T22:57:38.805Z,2.90
2023-05-23T23:00:11.288Z,2.83
2023-05-23T23:02:39.878Z,2.92
2023-05-23T23:05:12.328Z,3.00
2023-05-23T23:07:40.723Z,3.30
2023-05-23T23:10:10.920Z,2.80
2023-05-23T23:12:39.455Z,2.88
2023-05-23T23:15:12.897Z,2.70
2023-05-23T23:17:41.415Z,2.90
2023-05-23T23:20:12.739Z,2.63
2023-05-23T23:22:41.592Z,2.65
2023-05-23T23:25:11.090Z,2.50
2023-05-23T23:27:39.933Z,2.60
2023-05-23T23:30:10.121Z,2.88
2023-05-23T23:32:39.956Z,2.90
2023-05-23T23:35:08.875Z,2.97
2023-05-23T23:37:37.229Z,2.90
2023-05-23T23:40:08.864Z,2.97
2023-05-23T23:42:37.232Z,2.88
2023-05-23T23:45:06.583Z,3.10
2023-05-23T23:47:35.018Z,2.78
2023-05-23T23:50:05.112Z,2.80
2023-05-23T23:52:33.675Z,3.10
2023-05-23T23:55:02.329Z,2.95
2023-05-23T23:57:30.819Z,2.85
2023-05-23T23:59:59.295Z,2.90
